Aeroporto :
LOGIN :

Iscrizione | Disclaimer

   EN    FR    IT 

 










Sommario :    VFR   VFR Marginale   IFR   IFR Intensivo   IFR Molto Intensivo
Visibilità : 
Base nubi : 
>= 8 km
>= 3000ft
5 / 8 km
1000 / 3000 ft
1500m / 5 km
500 / 1000 ft
800 / 1500m
200 / 500 ft
< 800m
< 200 ft
Simboli :   Temporali  Nebbia  Neve Forte  Precipitazioni Forti  Vento > 20 kt
SIGMETs :   Varie  Temporali  Ghiacco  Turbolenza  Onda orograficha  Ceneri Vulcaniche






- Altitudine del aeroporto : 1300 ft
- Codice IATA : LIG


LFBL - Limoges

ULTIMO METAR :
  • 041430Z AUTO 26002KT 9999 OVC018 04/03 Q1010 TEMPO 4000 -SHRA BKN010TCU

METARs OBSOLETI :
  • 041400Z AUTO 25002KT 9999 -RA OVC011 04/03 Q1010 TEMPO 4000 -SHRA BKN010TCU
  • 041330Z AUTO VRB02KT 9999 OVC010 04/03 Q1009 TEMPO 2500 -RASN BKN010TCU
  • 041300Z AUTO 23004KT 9999 OVC008 04/03 Q1009 TEMPO 2500 -RASN BKN010TCU
  • 041230Z AUTO VRB03KT 9999 OVC006 04/03 Q1009 TEMPO 2500 -RASN BKN010TCU
  • 041200Z AUTO VRB03KT 9999 OVC007 04/03 Q1009 TEMPO 4000 -SHRA BKN010TCU
  • 041130Z AUTO 24004KT 200V280 9999 BKN006 OVC010 04/03 Q1009 TEMPO 4000 -SHRA BKN010TCU

TAF AMD TAF LFBL
Valido dal 04 a 13 ore il 05 a 12 ore UTC


041335Z 0413/0512 VRB03KT 9999 OVC015
TEMPO 0413/0418 4000 -SHRA BKN010TCU
PROB40
TEMPO 0413/0414 BKN006
TEMPO 0423/0511 3000 BR
PROB40 0500/0510 0300 FG VV///
BECMG 0510/0512 08005KT CAVOK
ATIS : +33 5 55 48 40 37



MetMap, La meteo Aeronautica in un colpo d'occhio ! - Copyright ORBIFLY Dicembre 2007 - Disclaimer

ORBIFLY MET'MAP TEAM :

Programmazione e sviluppo : Alexandra Zaïnal
Concezione : Baudouin d'Aumeries
Supporto tecnico e logistico : Manuel Goepfert
Aiuto : Marc-Olivier Méhu
Aiuto per la traduzione : Arnaldo La Scala




FONTI E CREDITI :

   NOAA